sensor_id;sensor_type;location;lat;lon;timestamp;P1;durP1;ratioP1;P2;durP2;ratioP2
43042;SDS011;28667;50.758;6.096;2024-03-22T00:01:12;19.15;;;8.45;;
43042;SDS011;28667;50.758;6.096;2024-03-22T00:03:38;21.10;;;8.73;;
43042;SDS011;28667;50.758;6.096;2024-03-22T00:06:03;17.98;;;7.70;;
43042;SDS011;28667;50.758;6.096;2024-03-22T00:08:29;21.05;;;8.02;;
43042;SDS011;28667;50.758;6.096;2024-03-22T00:10:55;18.50;;;7.13;;
43042;SDS011;28667;50.758;6.096;2024-03-22T00:13:21;23.23;;;8.93;;
43042;SDS011;28667;50.758;6.096;2024-03-22T00:15:47;16.58;;;8.10;;
43042;SDS011;28667;50.758;6.096;2024-03-22T00:18:12;19.98;;;8.82;;
43042;SDS011;28667;50.758;6.096;2024-03-22T00:20:38;22.25;;;8.70;;
43042;SDS011;28667;50.758;6.096;2024-03-22T00:23:04;18.48;;;8.20;;
43042;SDS011;28667;50.758;6.096;2024-03-22T00:25:31;23.50;;;10.10;;
43042;SDS011;28667;50.758;6.096;2024-03-22T00:27:57;18.80;;;8.55;;
43042;SDS011;28667;50.758;6.096;2024-03-22T00:30:23;22.80;;;9.30;;
43042;SDS011;28667;50.758;6.096;2024-03-22T00:32:48;20.80;;;9.20;;
43042;SDS011;28667;50.758;6.096;2024-03-22T00:35:14;19.77;;;8.52;;
43042;SDS011;28667;50.758;6.096;2024-03-22T00:37:40;17.42;;;8.13;;
43042;SDS011;28667;50.758;6.096;2024-03-22T00:40:06;18.00;;;8.05;;
43042;SDS011;28667;50.758;6.096;2024-03-22T00:42:32;18.40;;;7.82;;
43042;SDS011;28667;50.758;6.096;2024-03-22T00:44:57;19.20;;;8.40;;
43042;SDS011;28667;50.758;6.096;2024-03-22T00:47:23;22.85;;;8.50;;
43042;SDS011;28667;50.758;6.096;2024-03-22T00:49:49;17.27;;;7.35;;
43042;SDS011;28667;50.758;6.096;2024-03-22T00:52:15;17.30;;;8.70;;
43042;SDS011;28667;50.758;6.096;2024-03-22T00:54:41;16.35;;;6.95;;
43042;SDS011;28667;50.758;6.096;2024-03-22T00:57:08;16.52;;;7.78;;
43042;SDS011;28667;50.758;6.096;2024-03-22T00:59:34;18.77;;;7.43;;
43042;SDS011;28667;50.758;6.096;2024-03-22T01:01:59;19.15;;;8.63;;
43042;SDS011;28667;50.758;6.096;2024-03-22T01:04:25;22.67;;;8.90;;
43042;SDS011;28667;50.758;6.096;2024-03-22T01:06:51;17.50;;;8.07;;
43042;SDS011;28667;50.758;6.096;2024-03-22T01:09:16;17.90;;;8.35;;
43042;SDS011;28667;50.758;6.096;2024-03-22T01:11:42;18.15;;;8.02;;
43042;SDS011;28667;50.758;6.096;2024-03-22T01:14:08;22.25;;;9.02;;
43042;SDS011;28667;50.758;6.096;2024-03-22T01:16:34;17.25;;;8.13;;
43042;SDS011;28667;50.758;6.096;2024-03-22T01:18:59;18.90;;;8.48;;
43042;SDS011;28667;50.758;6.096;2024-03-22T01:21:25;21.40;;;9.07;;
43042;SDS011;28667;50.758;6.096;2024-03-22T01:23:54;13.18;;;6.38;;
43042;SDS011;28667;50.758;6.096;2024-03-22T01:26:19;18.95;;;7.63;;
43042;SDS011;28667;50.758;6.096;2024-03-22T01:28:46;17.73;;;7.80;;
43042;SDS011;28667;50.758;6.096;2024-03-22T01:31:11;20.25;;;8.63;;
43042;SDS011;28667;50.758;6.096;2024-03-22T01:33:37;20.95;;;8.18;;
43042;SDS011;28667;50.758;6.096;2024-03-22T01:36:03;19.52;;;8.63;;
43042;SDS011;28667;50.758;6.096;2024-03-22T01:38:30;18.67;;;8.38;;
43042;SDS011;28667;50.758;6.096;2024-03-22T01:40:56;16.85;;;7.80;;
43042;SDS011;28667;50.758;6.096;2024-03-22T01:43:22;20.77;;;8.63;;
43042;SDS011;28667;50.758;6.096;2024-03-22T01:45:48;16.90;;;7.97;;
43042;SDS011;28667;50.758;6.096;2024-03-22T01:48:14;14.65;;;7.50;;
43042;SDS011;28667;50.758;6.096;2024-03-22T01:50:40;18.30;;;7.70;;
43042;SDS011;28667;50.758;6.096;2024-03-22T01:53:08;17.85;;;8.05;;
43042;SDS011;28667;50.758;6.096;2024-03-22T01:55:34;18.20;;;7.63;;
43042;SDS011;28667;50.758;6.096;2024-03-22T01:57:59;17.83;;;7.95;;
43042;SDS011;28667;50.758;6.096;2024-03-22T02:00:25;18.50;;;9.23;;
43042;SDS011;28667;50.758;6.096;2024-03-22T02:02:51;16.40;;;7.38;;
43042;SDS011;28667;50.758;6.096;2024-03-22T02:05:17;19.73;;;8.70;;
43042;SDS011;28667;50.758;6.096;2024-03-22T02:07:47;17.38;;;8.45;;
43042;SDS011;28667;50.758;6.096;2024-03-22T02:10:13;16.73;;;8.18;;
43042;SDS011;28667;50.758;6.096;2024-03-22T02:12:39;19.35;;;7.22;;
43042;SDS011;28667;50.758;6.096;2024-03-22T02:15:06;20.27;;;8.77;;
43042;SDS011;28667;50.758;6.096;2024-03-22T02:17:33;19.10;;;8.20;;
43042;SDS011;28667;50.758;6.096;2024-03-22T02:20:00;16.90;;;8.30;;
43042;SDS011;28667;50.758;6.096;2024-03-22T02:22:26;17.95;;;8.73;;
43042;SDS011;28667;50.758;6.096;2024-03-22T02:24:52;17.67;;;7.72;;
43042;SDS011;28667;50.758;6.096;2024-03-22T02:27:18;18.77;;;8.80;;
43042;SDS011;28667;50.758;6.096;2024-03-22T02:29:44;18.20;;;7.88;;
43042;SDS011;28667;50.758;6.096;2024-03-22T02:32:10;16.80;;;8.15;;
43042;SDS011;28667;50.758;6.096;2024-03-22T02:34:36;17.15;;;7.95;;
43042;SDS011;28667;50.758;6.096;2024-03-22T02:37:02;19.63;;;8.95;;
43042;SDS011;28667;50.758;6.096;2024-03-22T02:39:28;17.75;;;8.02;;
43042;SDS011;28667;50.758;6.096;2024-03-22T02:41:54;16.42;;;7.25;;
43042;SDS011;28667;50.758;6.096;2024-03-22T02:44:20;21.15;;;7.35;;
43042;SDS011;28667;50.758;6.096;2024-03-22T02:46:46;18.67;;;7.95;;
43042;SDS011;28667;50.758;6.096;2024-03-22T02:49:12;17.40;;;7.75;;
43042;SDS011;28667;50.758;6.096;2024-03-22T02:51:37;16.63;;;8.70;;
43042;SDS011;28667;50.758;6.096;2024-03-22T02:54:04;15.20;;;7.20;;
43042;SDS011;28667;50.758;6.096;2024-03-22T02:56:29;14.77;;;7.72;;
43042;SDS011;28667;50.758;6.096;2024-03-22T02:58:55;20.75;;;7.68;;
43042;SDS011;28667;50.758;6.096;2024-03-22T03:01:21;18.02;;;8.40;;
43042;SDS011;28667;50.758;6.096;2024-03-22T03:03:47;14.18;;;7.18;;
43042;SDS011;28667;50.758;6.096;2024-03-22T03:06:12;13.70;;;6.50;;
43042;SDS011;28667;50.758;6.096;2024-03-22T03:08:39;16.10;;;8.13;;
43042;SDS011;28667;50.758;6.096;2024-03-22T03:11:04;17.67;;;8.30;;
43042;SDS011;28667;50.758;6.096;2024-03-22T03:13:30;21.90;;;9.30;;
43042;SDS011;28667;50.758;6.096;2024-03-22T03:15:56;20.70;;;9.48;;
43042;SDS011;28667;50.758;6.096;2024-03-22T03:18:22;14.20;;;7.20;;
43042;SDS011;28667;50.758;6.096;2024-03-22T03:20:48;14.57;;;7.28;;
43042;SDS011;28667;50.758;6.096;2024-03-22T03:23:14;15.73;;;7.70;;
43042;SDS011;28667;50.758;6.096;2024-03-22T03:25:40;15.55;;;7.25;;
43042;SDS011;28667;50.758;6.096;2024-03-22T03:28:05;13.68;;;6.80;;
43042;SDS011;28667;50.758;6.096;2024-03-22T03:30:33;13.70;;;7.43;;
43042;SDS011;28667;50.758;6.096;2024-03-22T03:33:00;15.88;;;7.20;;
43042;SDS011;28667;50.758;6.096;2024-03-22T03:35:26;16.27;;;7.47;;
43042;SDS011;28667;50.758;6.096;2024-03-22T03:37:52;12.80;;;7.55;;
43042;SDS011;28667;50.758;6.096;2024-03-22T03:40:18;14.65;;;7.38;;
43042;SDS011;28667;50.758;6.096;2024-03-22T03:42:43;16.65;;;6.95;;
43042;SDS011;28667;50.758;6.096;2024-03-22T03:45:09;14.88;;;7.90;;
43042;SDS011;28667;50.758;6.096;2024-03-22T03:47:35;15.82;;;7.90;;
43042;SDS011;28667;50.758;6.096;2024-03-22T03:50:01;11.88;;;6.75;;
43042;SDS011;28667;50.758;6.096;2024-03-22T03:52:27;17.52;;;8.07;;
43042;SDS011;28667;50.758;6.096;2024-03-22T03:54:53;17.55;;;7.80;;
43042;SDS011;28667;50.758;6.096;2024-03-22T03:57:18;15.18;;;7.80;;
43042;SDS011;28667;50.758;6.096;2024-03-22T03:59:44;18.65;;;8.35;;
43042;SDS011;28667;50.758;6.096;2024-03-22T04:02:10;17.48;;;8.50;;
43042;SDS011;28667;50.758;6.096;2024-03-22T04:04:35;16.88;;;8.50;;
43042;SDS011;28667;50.758;6.096;2024-03-22T04:07:01;16.95;;;8.20;;
43042;SDS011;28667;50.758;6.096;2024-03-22T04:09:27;20.33;;;9.85;;
43042;SDS011;28667;50.758;6.096;2024-03-22T04:11:53;18.55;;;8.23;;
43042;SDS011;28667;50.758;6.096;2024-03-22T04:14:19;17.38;;;9.32;;
43042;SDS011;28667;50.758;6.096;2024-03-22T04:16:45;16.58;;;7.82;;
43042;SDS011;28667;50.758;6.096;2024-03-22T04:19:10;17.17;;;7.88;;
43042;SDS011;28667;50.758;6.096;2024-03-22T04:21:36;16.55;;;8.40;;
43042;SDS011;28667;50.758;6.096;2024-03-22T04:24:02;18.70;;;8.50;;
43042;SDS011;28667;50.758;6.096;2024-03-22T04:26:27;16.55;;;8.18;;
43042;SDS011;28667;50.758;6.096;2024-03-22T04:28:53;15.75;;;8.43;;
43042;SDS011;28667;50.758;6.096;2024-03-22T04:31:19;17.42;;;8.45;;
43042;SDS011;28667;50.758;6.096;2024-03-22T04:33:44;16.92;;;8.15;;
43042;SDS011;28667;50.758;6.096;2024-03-22T04:36:10;17.85;;;8.18;;
43042;SDS011;28667;50.758;6.096;2024-03-22T04:38:36;14.02;;;8.52;;
43042;SDS011;28667;50.758;6.096;2024-03-22T04:41:02;15.55;;;6.97;;
43042;SDS011;28667;50.758;6.096;2024-03-22T04:43:27;18.63;;;8.40;;
43042;SDS011;28667;50.758;6.096;2024-03-22T04:45:53;18.30;;;8.18;;
43042;SDS011;28667;50.758;6.096;2024-03-22T04:48:20;17.73;;;8.07;;
43042;SDS011;28667;50.758;6.096;2024-03-22T04:50:47;16.38;;;8.52;;
43042;SDS011;28667;50.758;6.096;2024-03-22T04:53:15;17.48;;;7.65;;
43042;SDS011;28667;50.758;6.096;2024-03-22T04:55:46;17.15;;;8.27;;
43042;SDS011;28667;50.758;6.096;2024-03-22T04:58:13;17.38;;;8.25;;
43042;SDS011;28667;50.758;6.096;2024-03-22T05:00:43;13.98;;;7.35;;
43042;SDS011;28667;50.758;6.096;2024-03-22T05:03:09;13.57;;;7.80;;
43042;SDS011;28667;50.758;6.096;2024-03-22T05:05:35;17.23;;;8.02;;
43042;SDS011;28667;50.758;6.096;2024-03-22T05:08:02;18.73;;;9.07;;
43042;SDS011;28667;50.758;6.096;2024-03-22T05:10:29;18.90;;;7.65;;
43042;SDS011;28667;50.758;6.096;2024-03-22T05:12:56;19.08;;;8.27;;
43042;SDS011;28667;50.758;6.096;2024-03-22T05:15:22;21.65;;;8.88;;
43042;SDS011;28667;50.758;6.096;2024-03-22T05:17:50;18.92;;;9.18;;
43042;SDS011;28667;50.758;6.096;2024-03-22T05:20:16;19.60;;;8.25;;
43042;SDS011;28667;50.758;6.096;2024-03-22T05:22:42;20.17;;;9.13;;
43042;SDS011;28667;50.758;6.096;2024-03-22T05:25:08;18.70;;;9.55;;
43042;SDS011;28667;50.758;6.096;2024-03-22T05:27:35;21.02;;;9.40;;
43042;SDS011;28667;50.758;6.096;2024-03-22T05:30:01;18.42;;;9.25;;
43042;SDS011;28667;50.758;6.096;2024-03-22T05:32:29;17.98;;;9.45;;
43042;SDS011;28667;50.758;6.096;2024-03-22T05:34:55;21.30;;;10.45;;
43042;SDS011;28667;50.758;6.096;2024-03-22T05:37:21;21.65;;;10.00;;
43042;SDS011;28667;50.758;6.096;2024-03-22T05:39:47;19.73;;;9.35;;
43042;SDS011;28667;50.758;6.096;2024-03-22T05:42:12;22.10;;;10.05;;
43042;SDS011;28667;50.758;6.096;2024-03-22T05:44:38;19.88;;;8.82;;
43042;SDS011;28667;50.758;6.096;2024-03-22T05:47:04;19.67;;;9.10;;
43042;SDS011;28667;50.758;6.096;2024-03-22T05:49:30;17.10;;;8.98;;
43042;SDS011;28667;50.758;6.096;2024-03-22T05:51:56;19.92;;;9.68;;
43042;SDS011;28667;50.758;6.096;2024-03-22T05:54:21;18.90;;;8.98;;
43042;SDS011;28667;50.758;6.096;2024-03-22T05:56:47;24.98;;;10.75;;
43042;SDS011;28667;50.758;6.096;2024-03-22T05:59:13;18.45;;;9.55;;
43042;SDS011;28667;50.758;6.096;2024-03-22T06:01:39;18.80;;;8.73;;
43042;SDS011;28667;50.758;6.096;2024-03-22T06:04:05;20.88;;;9.02;;
43042;SDS011;28667;50.758;6.096;2024-03-22T06:06:34;17.35;;;9.13;;
43042;SDS011;28667;50.758;6.096;2024-03-22T06:09:00;15.45;;;8.13;;
43042;SDS011;28667;50.758;6.096;2024-03-22T06:11:29;17.38;;;8.55;;
43042;SDS011;28667;50.758;6.096;2024-03-22T06:13:55;19.42;;;9.18;;
43042;SDS011;28667;50.758;6.096;2024-03-22T06:16:21;17.98;;;7.68;;
43042;SDS011;28667;50.758;6.096;2024-03-22T06:18:47;18.85;;;7.80;;
43042;SDS011;28667;50.758;6.096;2024-03-22T06:21:13;14.60;;;7.68;;
43042;SDS011;28667;50.758;6.096;2024-03-22T06:23:48;13.07;;;6.95;;
43042;SDS011;28667;50.758;6.096;2024-03-22T06:26:14;15.25;;;6.80;;
43042;SDS011;28667;50.758;6.096;2024-03-22T06:28:40;12.23;;;5.15;;
43042;SDS011;28667;50.758;6.096;2024-03-22T06:31:06;8.50;;;5.00;;
43042;SDS011;28667;50.758;6.096;2024-03-22T06:33:31;10.30;;;4.93;;
43042;SDS011;28667;50.758;6.096;2024-03-22T06:35:57;9.05;;;4.55;;
43042;SDS011;28667;50.758;6.096;2024-03-22T06:38:23;8.77;;;5.03;;
43042;SDS011;28667;50.758;6.096;2024-03-22T06:40:48;10.63;;;4.80;;
43042;SDS011;28667;50.758;6.096;2024-03-22T06:43:14;8.43;;;4.88;;
43042;SDS011;28667;50.758;6.096;2024-03-22T06:45:40;9.07;;;4.82;;
43042;SDS011;28667;50.758;6.096;2024-03-22T06:48:05;9.18;;;4.68;;
43042;SDS011;28667;50.758;6.096;2024-03-22T06:50:31;9.70;;;5.00;;
43042;SDS011;28667;50.758;6.096;2024-03-22T06:52:57;10.32;;;5.15;;
43042;SDS011;28667;50.758;6.096;2024-03-22T06:55:22;9.35;;;5.43;;
43042;SDS011;28667;50.758;6.096;2024-03-22T06:57:48;11.25;;;6.18;;
43042;SDS011;28667;50.758;6.096;2024-03-22T07:00:16;10.13;;;5.60;;
43042;SDS011;28667;50.758;6.096;2024-03-22T07:02:42;11.60;;;6.07;;
43042;SDS011;28667;50.758;6.096;2024-03-22T07:05:09;12.20;;;6.40;;
43042;SDS011;28667;50.758;6.096;2024-03-22T07:07:35;12.07;;;6.03;;
43042;SDS011;28667;50.758;6.096;2024-03-22T07:10:04;15.52;;;6.95;;
43042;SDS011;28667;50.758;6.096;2024-03-22T07:12:33;13.05;;;6.75;;
43042;SDS011;28667;50.758;6.096;2024-03-22T07:14:59;15.27;;;6.90;;
43042;SDS011;28667;50.758;6.096;2024-03-22T07:17:26;19.30;;;8.45;;
43042;SDS011;28667;50.758;6.096;2024-03-22T07:19:52;17.88;;;7.28;;
43042;SDS011;28667;50.758;6.096;2024-03-22T07:22:18;19.23;;;9.02;;
43042;SDS011;28667;50.758;6.096;2024-03-22T07:24:44;18.70;;;8.52;;
43042;SDS011;28667;50.758;6.096;2024-03-22T07:27:10;17.48;;;8.20;;
43042;SDS011;28667;50.758;6.096;2024-03-22T07:29:37;18.25;;;8.95;;
43042;SDS011;28667;50.758;6.096;2024-03-22T07:32:02;19.80;;;8.98;;
43042;SDS011;28667;50.758;6.096;2024-03-22T07:34:29;18.52;;;8.95;;
43042;SDS011;28667;50.758;6.096;2024-03-22T07:36:55;18.40;;;8.90;;
43042;SDS011;28667;50.758;6.096;2024-03-22T07:39:20;18.75;;;8.77;;
43042;SDS011;28667;50.758;6.096;2024-03-22T07:41:46;16.38;;;9.15;;
43042;SDS011;28667;50.758;6.096;2024-03-22T07:44:12;22.55;;;9.52;;
43042;SDS011;28667;50.758;6.096;2024-03-22T07:46:37;21.58;;;9.88;;
43042;SDS011;28667;50.758;6.096;2024-03-22T07:49:03;20.13;;;9.35;;
43042;SDS011;28667;50.758;6.096;2024-03-22T07:51:29;21.40;;;9.85;;
43042;SDS011;28667;50.758;6.096;2024-03-22T07:53:55;20.88;;;9.93;;
43042;SDS011;28667;50.758;6.096;2024-03-22T07:56:21;22.15;;;9.85;;
43042;SDS011;28667;50.758;6.096;2024-03-22T07:58:47;16.42;;;9.30;;
43042;SDS011;28667;50.758;6.096;2024-03-22T08:01:13;20.33;;;9.57;;
43042;SDS011;28667;50.758;6.096;2024-03-22T08:03:38;20.17;;;8.88;;
43042;SDS011;28667;50.758;6.096;2024-03-22T08:06:04;22.90;;;10.40;;
43042;SDS011;28667;50.758;6.096;2024-03-22T08:08:30;18.58;;;9.90;;
43042;SDS011;28667;50.758;6.096;2024-03-22T08:10:56;23.80;;;10.48;;
43042;SDS011;28667;50.758;6.096;2024-03-22T08:13:22;19.30;;;9.65;;
43042;SDS011;28667;50.758;6.096;2024-03-22T08:15:47;20.83;;;10.18;;
43042;SDS011;28667;50.758;6.096;2024-03-22T08:18:14;20.45;;;9.90;;
43042;SDS011;28667;50.758;6.096;2024-03-22T08:20:39;24.45;;;11.27;;
43042;SDS011;28667;50.758;6.096;2024-03-22T08:23:05;22.05;;;10.48;;
43042;SDS011;28667;50.758;6.096;2024-03-22T08:25:31;23.85;;;10.35;;
43042;SDS011;28667;50.758;6.096;2024-03-22T08:27:57;21.83;;;10.65;;
43042;SDS011;28667;50.758;6.096;2024-03-22T08:30:23;23.58;;;11.20;;
43042;SDS011;28667;50.758;6.096;2024-03-22T08:32:50;19.85;;;10.27;;
43042;SDS011;28667;50.758;6.096;2024-03-22T08:35:19;17.58;;;9.25;;
43042;SDS011;28667;50.758;6.096;2024-03-22T08:37:45;20.85;;;9.55;;
43042;SDS011;28667;50.758;6.096;2024-03-22T08:40:11;18.40;;;9.35;;
43042;SDS011;28667;50.758;6.096;2024-03-22T08:42:39;20.15;;;9.85;;
43042;SDS011;28667;50.758;6.096;2024-03-22T08:45:05;18.15;;;8.70;;
43042;SDS011;28667;50.758;6.096;2024-03-22T08:47:31;17.17;;;9.13;;
43042;SDS011;28667;50.758;6.096;2024-03-22T08:49:58;22.63;;;9.90;;
43042;SDS011;28667;50.758;6.096;2024-03-22T08:52:25;20.00;;;10.13;;
43042;SDS011;28667;50.758;6.096;2024-03-22T08:54:50;21.00;;;10.00;;
43042;SDS011;28667;50.758;6.096;2024-03-22T08:57:17;18.83;;;10.00;;
43042;SDS011;28667;50.758;6.096;2024-03-22T08:59:43;22.90;;;9.98;;
43042;SDS011;28667;50.758;6.096;2024-03-22T09:02:09;20.65;;;10.30;;
43042;SDS011;28667;50.758;6.096;2024-03-22T09:04:36;19.02;;;9.35;;
43042;SDS011;28667;50.758;6.096;2024-03-22T09:07:02;22.92;;;10.68;;
43042;SDS011;28667;50.758;6.096;2024-03-22T09:09:28;19.02;;;8.93;;
43042;SDS011;28667;50.758;6.096;2024-03-22T09:11:54;16.90;;;9.13;;
43042;SDS011;28667;50.758;6.096;2024-03-22T09:14:19;18.30;;;9.93;;
43042;SDS011;28667;50.758;6.096;2024-03-22T09:16:45;22.73;;;10.02;;
43042;SDS011;28667;50.758;6.096;2024-03-22T09:19:11;18.65;;;8.82;;
43042;SDS011;28667;50.758;6.096;2024-03-22T09:21:37;16.63;;;9.15;;
43042;SDS011;28667;50.758;6.096;2024-03-22T09:24:02;18.60;;;9.95;;
43042;SDS011;28667;50.758;6.096;2024-03-22T09:26:28;19.13;;;9.68;;
43042;SDS011;28667;50.758;6.096;2024-03-22T09:28:54;18.98;;;9.65;;
43042;SDS011;28667;50.758;6.096;2024-03-22T09:31:20;22.17;;;9.23;;
43042;SDS011;28667;50.758;6.096;2024-03-22T09:33:46;22.30;;;10.43;;
43042;SDS011;28667;50.758;6.096;2024-03-22T09:36:11;19.98;;;9.50;;
43042;SDS011;28667;50.758;6.096;2024-03-22T09:38:37;19.45;;;9.68;;
43042;SDS011;28667;50.758;6.096;2024-03-22T09:41:03;21.58;;;10.02;;
43042;SDS011;28667;50.758;6.096;2024-03-22T09:43:30;16.52;;;9.00;;
43042;SDS011;28667;50.758;6.096;2024-03-22T09:45:57;21.25;;;10.27;;
43042;SDS011;28667;50.758;6.096;2024-03-22T09:48:23;18.45;;;9.73;;
43042;SDS011;28667;50.758;6.096;2024-03-22T09:50:50;15.82;;;8.57;;
43042;SDS011;28667;50.758;6.096;2024-03-22T09:53:17;17.50;;;8.88;;
43042;SDS011;28667;50.758;6.096;2024-03-22T09:55:47;16.42;;;8.30;;
43042;SDS011;28667;50.758;6.096;2024-03-22T09:58:13;18.42;;;9.15;;
43042;SDS011;28667;50.758;6.096;2024-03-22T10:00:41;19.98;;;9.43;;
43042;SDS011;28667;50.758;6.096;2024-03-22T10:03:08;19.80;;;8.88;;
43042;SDS011;28667;50.758;6.096;2024-03-22T10:05:35;20.20;;;9.68;;
43042;SDS011;28667;50.758;6.096;2024-03-22T10:08:01;20.15;;;9.95;;
43042;SDS011;28667;50.758;6.096;2024-03-22T10:10:28;19.23;;;10.23;;
43042;SDS011;28667;50.758;6.096;2024-03-22T10:12:54;15.95;;;9.00;;
43042;SDS011;28667;50.758;6.096;2024-03-22T10:15:23;16.75;;;9.73;;
43042;SDS011;28667;50.758;6.096;2024-03-22T10:17:49;17.58;;;10.20;;
43042;SDS011;28667;50.758;6.096;2024-03-22T10:20:15;22.75;;;9.93;;
43042;SDS011;28667;50.758;6.096;2024-03-22T10:22:48;18.35;;;9.55;;
43042;SDS011;28667;50.758;6.096;2024-03-22T10:25:14;16.33;;;8.98;;
43042;SDS011;28667;50.758;6.096;2024-03-22T10:27:40;18.77;;;9.82;;
43042;SDS011;28667;50.758;6.096;2024-03-22T10:30:09;16.52;;;9.57;;
43042;SDS011;28667;50.758;6.096;2024-03-22T10:32:36;15.50;;;8.73;;
43042;SDS011;28667;50.758;6.096;2024-03-22T10:35:02;18.65;;;9.65;;
43042;SDS011;28667;50.758;6.096;2024-03-22T10:37:32;19.08;;;8.77;;
43042;SDS011;28667;50.758;6.096;2024-03-22T10:40:02;17.17;;;8.85;;
43042;SDS011;28667;50.758;6.096;2024-03-22T10:42:35;19.67;;;8.40;;
43042;SDS011;28667;50.758;6.096;2024-03-22T10:45:03;17.75;;;8.23;;
43042;SDS011;28667;50.758;6.096;2024-03-22T10:47:31;19.83;;;9.93;;
43042;SDS011;28667;50.758;6.096;2024-03-22T10:50:01;19.52;;;9.05;;
43042;SDS011;28667;50.758;6.096;2024-03-22T10:52:34;20.35;;;9.73;;
43042;SDS011;28667;50.758;6.096;2024-03-22T10:55:05;19.05;;;10.10;;
43042;SDS011;28667;50.758;6.096;2024-03-22T10:57:36;15.15;;;9.23;;
43042;SDS011;28667;50.758;6.096;2024-03-22T11:00:11;16.73;;;9.40;;
43042;SDS011;28667;50.758;6.096;2024-03-22T11:02:37;19.55;;;10.25;;
43042;SDS011;28667;50.758;6.096;2024-03-22T11:05:03;17.33;;;9.05;;
43042;SDS011;28667;50.758;6.096;2024-03-22T11:07:30;17.50;;;8.95;;
43042;SDS011;28667;50.758;6.096;2024-03-22T11:09:56;17.27;;;9.32;;
43042;SDS011;28667;50.758;6.096;2024-03-22T11:12:26;16.13;;;8.40;;
43042;SDS011;28667;50.758;6.096;2024-03-22T11:14:53;16.75;;;8.45;;
43042;SDS011;28667;50.758;6.096;2024-03-22T11:17:19;15.93;;;8.85;;
43042;SDS011;28667;50.758;6.096;2024-03-22T11:19:50;20.00;;;8.30;;
43042;SDS011;28667;50.758;6.096;2024-03-22T11:22:16;18.92;;;8.70;;
43042;SDS011;28667;50.758;6.096;2024-03-22T11:24:42;14.68;;;8.40;;
43042;SDS011;28667;50.758;6.096;2024-03-22T11:27:09;17.60;;;7.97;;
43042;SDS011;28667;50.758;6.096;2024-03-22T11:29:38;15.80;;;8.07;;
43042;SDS011;28667;50.758;6.096;2024-03-22T11:32:06;14.05;;;7.10;;
43042;SDS011;28667;50.758;6.096;2024-03-22T11:34:35;13.27;;;7.18;;
43042;SDS011;28667;50.758;6.096;2024-03-22T11:37:06;16.75;;;7.30;;
43042;SDS011;28667;50.758;6.096;2024-03-22T11:39:38;14.88;;;8.38;;
43042;SDS011;28667;50.758;6.096;2024-03-22T11:42:05;15.38;;;8.88;;
43042;SDS011;28667;50.758;6.096;2024-03-22T11:44:32;16.10;;;8.70;;
43042;SDS011;28667;50.758;6.096;2024-03-22T11:47:00;15.23;;;8.82;;
43042;SDS011;28667;50.758;6.096;2024-03-22T11:49:26;14.40;;;8.18;;
43042;SDS011;28667;50.758;6.096;2024-03-22T11:51:52;15.60;;;7.95;;
43042;SDS011;28667;50.758;6.096;2024-03-22T11:54:21;15.65;;;8.15;;
43042;SDS011;28667;50.758;6.096;2024-03-22T11:56:46;15.90;;;8.85;;
43042;SDS011;28667;50.758;6.096;2024-03-22T11:59:12;18.48;;;8.45;;
43042;SDS011;28667;50.758;6.096;2024-03-22T12:01:38;20.10;;;9.07;;
43042;SDS011;28667;50.758;6.096;2024-03-22T12:04:05;16.45;;;8.45;;
43042;SDS011;28667;50.758;6.096;2024-03-22T12:06:35;16.13;;;8.57;;
43042;SDS011;28667;50.758;6.096;2024-03-22T12:09:01;17.67;;;8.70;;
43042;SDS011;28667;50.758;6.096;2024-03-22T12:11:28;12.52;;;7.22;;
43042;SDS011;28667;50.758;6.096;2024-03-22T12:13:54;16.65;;;8.50;;
43042;SDS011;28667;50.758;6.096;2024-03-22T12:16:20;16.90;;;8.70;;
43042;SDS011;28667;50.758;6.096;2024-03-22T12:18:45;17.10;;;9.00;;
43042;SDS011;28667;50.758;6.096;2024-03-22T12:21:11;17.95;;;9.68;;
43042;SDS011;28667;50.758;6.096;2024-03-22T12:23:37;20.13;;;10.27;;
43042;SDS011;28667;50.758;6.096;2024-03-22T12:26:02;15.70;;;8.57;;
43042;SDS011;28667;50.758;6.096;2024-03-22T12:28:28;15.25;;;9.23;;
43042;SDS011;28667;50.758;6.096;2024-03-22T12:30:54;18.30;;;9.40;;
43042;SDS011;28667;50.758;6.096;2024-03-22T12:33:20;16.00;;;9.55;;
43042;SDS011;28667;50.758;6.096;2024-03-22T12:35:45;17.73;;;9.23;;
43042;SDS011;28667;50.758;6.096;2024-03-22T12:38:13;21.08;;;10.27;;
43042;SDS011;28667;50.758;6.096;2024-03-22T12:40:39;18.10;;;10.02;;
43042;SDS011;28667;50.758;6.096;2024-03-22T12:43:05;19.55;;;10.35;;
43042;SDS011;28667;50.758;6.096;2024-03-22T12:45:31;18.38;;;9.38;;
43042;SDS011;28667;50.758;6.096;2024-03-22T12:48:00;16.77;;;9.13;;
43042;SDS011;28667;50.758;6.096;2024-03-22T12:50:26;15.93;;;8.52;;
43042;SDS011;28667;50.758;6.096;2024-03-22T12:52:52;14.10;;;8.30;;
43042;SDS011;28667;50.758;6.096;2024-03-22T12:55:18;17.70;;;8.25;;
43042;SDS011;28667;50.758;6.096;2024-03-22T12:57:43;13.43;;;7.50;;
43042;SDS011;28667;50.758;6.096;2024-03-22T13:00:10;13.57;;;7.53;;
43042;SDS011;28667;50.758;6.096;2024-03-22T13:05:05;12.00;;;6.75;;
43042;SDS011;28667;50.758;6.096;2024-03-22T13:07:32;16.20;;;8.15;;
43042;SDS011;28667;50.758;6.096;2024-03-22T13:09:58;14.63;;;6.78;;
43042;SDS011;28667;50.758;6.096;2024-03-22T13:12:25;14.43;;;7.47;;
43042;SDS011;28667;50.758;6.096;2024-03-22T13:14:52;15.35;;;7.43;;
43042;SDS011;28667;50.758;6.096;2024-03-22T13:17:18;14.38;;;7.78;;
43042;SDS011;28667;50.758;6.096;2024-03-22T13:19:43;14.60;;;7.07;;
43042;SDS011;28667;50.758;6.096;2024-03-22T13:22:09;12.20;;;6.75;;
43042;SDS011;28667;50.758;6.096;2024-03-22T13:24:35;13.68;;;6.28;;
43042;SDS011;28667;50.758;6.096;2024-03-22T13:27:01;8.52;;;4.65;;
43042;SDS011;28667;50.758;6.096;2024-03-22T13:29:27;9.25;;;4.22;;
43042;SDS011;28667;50.758;6.096;2024-03-22T13:31:54;9.07;;;4.78;;
43042;SDS011;28667;50.758;6.096;2024-03-22T13:34:20;12.15;;;5.53;;
43042;SDS011;28667;50.758;6.096;2024-03-22T13:36:46;9.90;;;5.35;;
43042;SDS011;28667;50.758;6.096;2024-03-22T13:39:12;14.63;;;6.30;;
43042;SDS011;28667;50.758;6.096;2024-03-22T13:41:41;11.43;;;6.35;;
43042;SDS011;28667;50.758;6.096;2024-03-22T13:44:07;12.48;;;6.93;;
43042;SDS011;28667;50.758;6.096;2024-03-22T13:46:33;13.75;;;7.50;;
43042;SDS011;28667;50.758;6.096;2024-03-22T13:49:12;14.48;;;7.43;;
43042;SDS011;28667;50.758;6.096;2024-03-22T13:51:40;15.98;;;8.25;;
43042;SDS011;28667;50.758;6.096;2024-03-22T13:54:06;15.70;;;7.57;;
43042;SDS011;28667;50.758;6.096;2024-03-22T13:56:32;13.05;;;7.70;;
43042;SDS011;28667;50.758;6.096;2024-03-22T13:58:57;14.98;;;6.65;;
43042;SDS011;28667;50.758;6.096;2024-03-22T14:01:23;15.27;;;8.20;;
43042;SDS011;28667;50.758;6.096;2024-03-22T14:03:49;13.20;;;7.28;;
43042;SDS011;28667;50.758;6.096;2024-03-22T14:06:15;13.77;;;8.23;;
43042;SDS011;28667;50.758;6.096;2024-03-22T14:08:40;16.40;;;8.70;;
43042;SDS011;28667;50.758;6.096;2024-03-22T14:11:06;12.90;;;8.18;;
43042;SDS011;28667;50.758;6.096;2024-03-22T14:13:32;17.33;;;7.68;;
43042;SDS011;28667;50.758;6.096;2024-03-22T14:15:57;18.77;;;8.02;;
43042;SDS011;28667;50.758;6.096;2024-03-22T14:18:23;17.55;;;8.38;;
43042;SDS011;28667;50.758;6.096;2024-03-22T14:20:49;14.80;;;7.57;;
43042;SDS011;28667;50.758;6.096;2024-03-22T14:23:15;15.10;;;8.00;;
43042;SDS011;28667;50.758;6.096;2024-03-22T14:25:40;13.43;;;7.05;;
43042;SDS011;28667;50.758;6.096;2024-03-22T14:28:07;15.77;;;8.10;;
43042;SDS011;28667;50.758;6.096;2024-03-22T14:30:32;14.25;;;7.78;;